Time;durP1;ratioP1;P1;durP2;ratioP2;P2;SDS_P1;SDS_P2;PMS_P1;PMS_P2;Temp;Humidity;BMP_temperature;BMP_pressure;BME280_temperature;BME280_humidity;BME280_pressure;Samples;Min_cycle;Max_cycle;Signal;HPM_P1;HPM_P2
2024/01/28 00:01:58;;;;;;;;;;;2.60;99.90;;;;;;6713838;88;20147;-77
2024/01/28 00:11:58;;;;;;;;;;;2.50;99.90;;;;;;6712014;88;20184;-77
2024/01/28 00:22:00;;;;;;;;;;;2.50;99.90;;;;;;6718294;88;20098;-78
2024/01/28 00:32:01;;;;;;;;;;;2.50;99.90;;;;;;6712965;88;20560;-77
2024/01/28 00:42:02;;;;;;;;;;;2.50;99.90;;;;;;6716436;88;20097;-77
2024/01/28 00:52:02;;;;;;;;;;;2.60;99.90;;;;;;6709259;88;20066;-78
2024/01/28 01:02:03;;;;;;;;;;;2.60;99.90;;;;;;6713895;88;20076;-78
2024/01/28 01:12:04;;;;;;;;;;;2.50;99.90;;;;;;6713250;88;20117;-77
2024/01/28 01:22:05;;;;;;;;;;;2.40;99.90;;;;;;6712287;88;20107;-77
2024/01/28 01:32:05;;;;;;;;;;;2.30;99.90;;;;;;6706518;88;20066;-77
2024/01/28 01:42:06;;;;;;;;;;;2.30;99.90;;;;;;6713595;88;20530;-77
2024/01/28 01:52:06;;;;;;;;;;;2.30;99.90;;;;;;6719672;77;20071;-76
2024/01/28 02:02:09;;;;;;;;;;;2.30;99.90;;;;;;6721413;88;20057;-74
2024/01/28 02:12:09;;;;;;;;;;;2.20;99.90;;;;;;6729330;88;20756;-73
2024/01/28 02:22:11;;;;;;;;;;;2.10;99.90;;;;;;6734554;88;20190;-74
2024/01/28 02:32:14;;;;;;;;;;;2.00;99.90;;;;;;6729169;88;20062;-74
2024/01/28 02:42:15;;;;;;;;;;;2.00;99.90;;;;;;6729353;88;20063;-74
2024/01/28 02:52:15;;;;;;;;;;;1.90;99.90;;;;;;6732925;88;20531;-75
2024/01/28 03:02:17;;;;;;;;;;;1.90;99.90;;;;;;6728410;88;20065;-74
2024/01/28 03:12:17;;;;;;;;;;;1.70;99.90;;;;;;6732084;88;20083;-75
2024/01/28 03:22:18;;;;;;;;;;;1.70;99.90;;;;;;6728514;88;20211;-75
2024/01/28 03:32:18;;;;;;;;;;;1.80;99.90;;;;;;6729389;88;20050;-75
2024/01/28 03:42:19;;;;;;;;;;;1.70;99.90;;;;;;6729313;88;20051;-74
2024/01/28 03:52:19;;;;;;;;;;;1.90;99.90;;;;;;6728469;88;20108;-75
2024/01/28 04:02:20;;;;;;;;;;;2.10;99.90;;;;;;6729408;88;20224;-74
2024/01/28 04:12:20;;;;;;;;;;;2.20;99.90;;;;;;6736548;88;20050;-75
2024/01/28 04:22:21;;;;;;;;;;;2.30;99.90;;;;;;6727453;88;20070;-75
2024/01/28 04:32:21;;;;;;;;;;;2.30;99.90;;;;;;6721931;88;20200;-75
2024/01/28 04:42:22;;;;;;;;;;;2.20;99.90;;;;;;6721500;88;20083;-75
2024/01/28 04:52:23;;;;;;;;;;;2.00;99.90;;;;;;6727583;88;20177;-75
2024/01/28 05:02:23;;;;;;;;;;;1.90;99.90;;;;;;6723804;88;20576;-74
2024/01/28 05:12:23;;;;;;;;;;;1.90;99.90;;;;;;6724198;88;20103;-75
2024/01/28 05:22:24;;;;;;;;;;;1.80;99.90;;;;;;6724304;88;20080;-75
2024/01/28 05:32:25;;;;;;;;;;;1.80;99.90;;;;;;6724347;88;20619;-74
2024/01/28 05:42:26;;;;;;;;;;;1.70;99.90;;;;;;6726331;88;20533;-74
2024/01/28 05:52:26;;;;;;;;;;;1.50;99.90;;;;;;6726006;88;20075;-75
2024/01/28 06:02:27;;;;;;;;;;;1.60;99.90;;;;;;6727326;88;20105;-74
2024/01/28 06:12:27;;;;;;;;;;;1.70;99.90;;;;;;6727328;88;20048;-75
2024/01/28 06:22:27;;;;;;;;;;;1.70;99.90;;;;;;6729122;88;20064;-75
2024/01/28 06:32:28;;;;;;;;;;;1.80;99.90;;;;;;6724637;88;20074;-75
2024/01/28 06:42:31;;;;;;;;;;;1.80;99.90;;;;;;6727012;88;20206;-75
2024/01/28 06:52:32;;;;;;;;;;;1.90;99.90;;;;;;6726624;88;20881;-75
2024/01/28 07:02:32;;;;;;;;;;;2.10;99.90;;;;;;6726130;88;20111;-74
2024/01/28 07:12:33;;;;;;;;;;;2.00;99.90;;;;;;6725720;88;20063;-75
2024/01/28 07:22:33;;;;;;;;;;;1.80;99.90;;;;;;6722084;88;20071;-75
2024/01/28 07:32:34;;;;;;;;;;;1.80;99.90;;;;;;6724401;88;20110;-75
2024/01/28 07:42:35;;;;;;;;;;;1.80;99.90;;;;;;6732048;88;20097;-75
2024/01/28 08:02:38;;;;;;;;;;;2.20;99.90;;;;;;6747546;87;20111;-77
2024/01/28 08:12:39;;;;;;;;;;;2.40;99.90;;;;;;6751613;87;20112;-77
2024/01/28 08:22:41;;;;;;;;;;;2.60;99.90;;;;;;6753831;87;20096;-77
2024/01/28 08:32:41;;;;;;;;;;;2.80;99.90;;;;;;6753921;87;20053;-75
2024/01/28 08:42:42;;;;;;;;;;;3.00;99.90;;;;;;6752128;87;20062;-76
2024/01/28 08:52:42;;;;;;;;;;;3.30;99.90;;;;;;6754065;87;20512;-77
2024/01/28 09:02:43;;;;;;;;;;;3.60;99.90;;;;;;6749222;87;21585;-77
2024/01/28 09:12:43;;;;;;;;;;;3.80;99.90;;;;;;6755531;87;20091;-76
2024/01/28 09:22:44;;;;;;;;;;;4.20;99.90;;;;;;6762676;87;20081;-77
2024/01/28 09:32:46;;;;;;;;;;;4.40;99.90;;;;;;6753613;87;20198;-77
2024/01/28 09:42:51;;;;;;;;;;;4.70;99.90;;;;;;6759620;87;20053;-77
2024/01/28 09:52:52;;;;;;;;;;;4.90;99.90;;;;;;6758068;87;20057;-78
2024/01/28 10:02:52;;;;;;;;;;;5.10;99.90;;;;;;6769296;87;20162;-78
2024/01/28 10:12:52;;;;;;;;;;;5.40;99.90;;;;;;6758877;87;20054;-78
2024/01/28 10:22:53;;;;;;;;;;;5.90;99.90;;;;;;6758931;87;20062;-77
2024/01/28 10:32:53;;;;;;;;;;;6.10;99.90;;;;;;6756833;88;20108;-77
2024/01/28 10:42:56;;;;;;;;;;;6.30;99.90;;;;;;6760652;88;20058;-77
2024/01/28 10:52:56;;;;;;;;;;;6.70;99.90;;;;;;6760025;87;20152;-77
2024/01/28 11:02:58;;;;;;;;;;;7.10;99.90;;;;;;6759641;87;20180;-77
2024/01/28 11:13:01;;;;;;;;;;;7.10;99.90;;;;;;6758983;88;20317;-78
2024/01/28 11:23:01;;;;;;;;;;;7.40;99.90;;;;;;6757740;88;20185;-77
2024/01/28 11:33:09;;;;;;;;;;;7.70;99.90;;;;;;6757967;87;20596;-78
2024/01/28 11:43:12;;;;;;;;;;;7.90;99.90;;;;;;6757729;87;20505;-78
2024/01/28 11:53:12;;;;;;;;;;;8.50;99.90;;;;;;6757420;88;20100;-77
2024/01/28 12:03:13;;;;;;;;;;;8.60;99.90;;;;;;6758164;88;20200;-77
2024/01/28 12:13:14;;;;;;;;;;;9.20;99.90;;;;;;6757516;88;20091;-76
2024/01/28 12:23:17;;;;;;;;;;;9.40;99.90;;;;;;6755248;87;20518;-77
2024/01/28 12:33:18;;;;;;;;;;;9.70;99.90;;;;;;6757355;88;20091;-77
2024/01/28 12:43:18;;;;;;;;;;;10.20;99.90;;;;;;6756572;88;20661;-77
2024/01/28 12:53:19;;;;;;;;;;;10.20;99.90;;;;;;6756819;87;20121;-77
2024/01/28 13:03:20;;;;;;;;;;;10.30;99.90;;;;;;6758155;88;20066;-76
2024/01/28 13:13:20;;;;;;;;;;;12.30;99.90;;;;;;6756194;88;20050;-78
2024/01/28 13:23:20;;;;;;;;;;;13.40;98.30;;;;;;6756223;88;20078;-78
2024/01/28 13:33:21;;;;;;;;;;;13.50;98.10;;;;;;6758336;88;20090;-78
2024/01/28 13:43:21;;;;;;;;;;;13.40;97.90;;;;;;6775804;87;20058;-78
2024/01/28 13:53:22;;;;;;;;;;;13.60;97.20;;;;;;6747847;76;20061;-76
2024/01/28 14:03:22;;;;;;;;;;;13.10;97.70;;;;;;6725500;88;20202;-78
2024/01/28 14:13:23;;;;;;;;;;;13.50;97.30;;;;;;6743733;88;20215;-73
2024/01/28 14:23:23;;;;;;;;;;;12.50;97.80;;;;;;6737761;88;20062;-74
2024/01/28 14:33:24;;;;;;;;;;;12.60;97.90;;;;;;6743753;87;20055;-73
2024/01/28 14:43:25;;;;;;;;;;;12.60;98.30;;;;;;6743166;87;20109;-74
2024/01/28 14:53:25;;;;;;;;;;;12.30;98.80;;;;;;6704856;88;20099;-73
2024/01/28 15:03:26;;;;;;;;;;;12.00;99.20;;;;;;6643321;88;20058;-73
2024/01/28 15:13:26;;;;;;;;;;;11.20;99.90;;;;;;6645314;88;20188;-73
2024/01/28 15:23:27;;;;;;;;;;;11.00;99.90;;;;;;6646603;88;20560;-73
2024/01/28 15:33:27;;;;;;;;;;;10.80;99.90;;;;;;6651391;88;20666;-73
2024/01/28 15:43:27;;;;;;;;;;;10.50;99.90;;;;;;6647219;88;20572;-74
2024/01/28 15:53:28;;;;;;;;;;;10.00;99.90;;;;;;6686141;87;20075;-74
2024/01/28 16:03:29;;;;;;;;;;;9.80;99.90;;;;;;6743891;88;20202;-75
2024/01/28 16:13:29;;;;;;;;;;;9.60;99.90;;;;;;6755685;88;20215;-76
2024/01/28 16:23:30;;;;;;;;;;;9.40;99.90;;;;;;6744402;87;20075;-75
2024/01/28 16:33:30;;;;;;;;;;;9.20;99.90;;;;;;6739597;87;20133;-76
2024/01/28 16:43:31;;;;;;;;;;;9.10;99.90;;;;;;6740868;87;20053;-76
2024/01/28 16:53:31;;;;;;;;;;;8.90;99.90;;;;;;6740934;87;20550;-75
2024/01/28 17:03:33;;;;;;;;;;;8.70;99.90;;;;;;6738853;88;20125;-75
2024/01/28 17:13:35;;;;;;;;;;;8.60;99.90;;;;;;6739726;87;20089;-75
2024/01/28 17:23:36;;;;;;;;;;;8.60;99.90;;;;;;6737025;88;20050;-75
2024/01/28 17:33:36;;;;;;;;;;;8.50;99.90;;;;;;6742715;87;20070;-74
2024/01/28 17:43:37;;;;;;;;;;;8.40;99.90;;;;;;6743853;87;20063;-74
2024/01/28 17:53:37;;;;;;;;;;;8.30;99.90;;;;;;6743577;88;20057;-74
2024/01/28 18:03:38;;;;;;;;;;;8.30;99.90;;;;;;6739926;88;20486;-73
2024/01/28 18:13:40;;;;;;;;;;;8.10;99.90;;;;;;6744108;87;20086;-73
2024/01/28 18:23:40;;;;;;;;;;;8.10;99.90;;;;;;6741914;88;20483;-75
2024/01/28 18:33:41;;;;;;;;;;;7.90;99.90;;;;;;6745424;88;20141;-76
2024/01/28 18:43:44;;;;;;;;;;;7.90;99.90;;;;;;6742705;88;20365;-73
2024/01/28 18:53:44;;;;;;;;;;;7.80;99.90;;;;;;6747840;87;20544;-74
2024/01/28 19:03:45;;;;;;;;;;;7.70;99.90;;;;;;6750267;87;20061;-74
2024/01/28 19:13:47;;;;;;;;;;;7.80;99.90;;;;;;6749702;87;20159;-74
2024/01/28 19:23:49;;;;;;;;;;;7.70;99.90;;;;;;6749357;87;20071;-75
2024/01/28 19:33:50;;;;;;;;;;;7.60;99.90;;;;;;6746998;88;20573;-74
2024/01/28 19:43:50;;;;;;;;;;;7.60;99.90;;;;;;6747417;88;20066;-75
2024/01/28 19:53:51;;;;;;;;;;;7.50;99.90;;;;;;6748668;88;20075;-75
2024/01/28 20:03:51;;;;;;;;;;;7.40;99.90;;;;;;6747544;87;20074;-75
2024/01/28 20:13:52;;;;;;;;;;;7.30;99.90;;;;;;6743692;77;20079;-75
2024/01/28 20:23:54;;;;;;;;;;;7.30;99.90;;;;;;6726002;88;20122;-75
2024/01/28 20:33:54;;;;;;;;;;;7.40;99.90;;;;;;6720853;88;20113;-76
2024/01/28 20:43:54;;;;;;;;;;;7.30;99.90;;;;;;6719572;88;20061;-74
2024/01/28 20:53:55;;;;;;;;;;;7.20;99.90;;;;;;6718192;88;20209;-74
2024/01/28 21:03:56;;;;;;;;;;;7.20;99.90;;;;;;6720189;88;20063;-74
2024/01/28 21:13:56;;;;;;;;;;;7.10;99.90;;;;;;6715238;88;20124;-74
2024/01/28 21:23:57;;;;;;;;;;;7.10;99.90;;;;;;6714179;88;20597;-75
2024/01/28 21:33:57;;;;;;;;;;;7.00;99.90;;;;;;6715003;88;20146;-74
2024/01/28 21:43:58;;;;;;;;;;;7.00;99.90;;;;;;6714098;88;20061;-75
2024/01/28 21:53:58;;;;;;;;;;;7.10;99.90;;;;;;6727528;88;20537;-74
2024/01/28 22:03:59;;;;;;;;;;;7.00;99.90;;;;;;6719803;88;20503;-74
2024/01/28 22:14:00;;;;;;;;;;;7.10;99.90;;;;;;6717495;88;20075;-74
2024/01/28 22:24:00;;;;;;;;;;;7.10;99.90;;;;;;6721539;88;20085;-74
2024/01/28 22:34:01;;;;;;;;;;;7.20;99.90;;;;;;6723657;88;20181;-74
2024/01/28 22:44:01;;;;;;;;;;;7.30;99.90;;;;;;6717628;88;20084;-74
2024/01/28 22:54:02;;;;;;;;;;;7.20;99.90;;;;;;6720218;88;20068;-75
2024/01/28 23:04:02;;;;;;;;;;;7.20;99.90;;;;;;6728779;88;20889;-74
2024/01/28 23:14:03;;;;;;;;;;;7.10;99.90;;;;;;6716727;88;20067;-74
2024/01/28 23:24:05;;;;;;;;;;;7.00;99.90;;;;;;6722263;88;20519;-74
2024/01/28 23:34:07;;;;;;;;;;;7.00;99.90;;;;;;6717819;88;20593;-74
2024/01/28 23:44:08;;;;;;;;;;;7.00;99.90;;;;;;6719506;88;20074;-74
2024/01/28 23:54:09;;;;;;;;;;;7.00;99.90;;;;;;6718833;88;20056;-74
